createdAt,value
2022-10-05T00:01:55.015Z,50.53
2022-10-05T00:04:28.338Z,50.55
2022-10-05T00:07:08.471Z,50.37
2022-10-05T00:09:35.223Z,52.70
2022-10-05T00:12:18.187Z,51.52
2022-10-05T00:14:47.085Z,51.49
2022-10-05T00:17:21.527Z,51.77
2022-10-05T00:19:52.409Z,53.27
2022-10-05T00:22:24.818Z,52.31
2022-10-05T00:24:57.750Z,52.07
2022-10-05T00:27:39.276Z,52.61
2022-10-05T00:30:18.910Z,52.26
2022-10-05T00:32:46.071Z,50.82
2022-10-05T00:35:13.705Z,51.17
2022-10-05T00:37:41.062Z,51.13
2022-10-05T00:40:32.498Z,52.58
2022-10-05T00:43:10.942Z,51.16
2022-10-05T00:45:48.859Z,52.99
2022-10-05T00:48:32.877Z,52.02
2022-10-05T00:51:20.684Z,50.89
2022-10-05T00:53:59.378Z,50.59
2022-10-05T00:56:51.899Z,51.75
2022-10-05T00:59:24.296Z,52.69
2022-10-05T01:02:15.361Z,50.47
2022-10-05T01:04:59.314Z,51.00
2022-10-05T01:07:49.859Z,50.58
2022-10-05T01:10:34.691Z,51.06
2022-10-05T01:13:15.871Z,50.78
2022-10-05T01:15:44.996Z,51.50
2022-10-05T01:18:19.392Z,54.23
2022-10-05T01:20:55.018Z,52.50
2022-10-05T01:23:24.332Z,54.32
2022-10-05T01:25:59.596Z,51.66
2022-10-05T01:28:35.196Z,51.76
2022-10-05T01:31:17.923Z,53.65
2022-10-05T01:33:56.364Z,53.62
2022-10-05T01:36:36.731Z,53.27
2022-10-05T01:39:15.184Z,52.63
2022-10-05T01:42:04.313Z,51.54
2022-10-05T01:44:38.799Z,52.03
2022-10-05T01:47:10.136Z,54.31
2022-10-05T01:49:38.760Z,52.77
2022-10-05T01:52:35.776Z,51.15
2022-10-05T01:55:17.772Z,51.73
2022-10-05T01:58:02.740Z,52.43
2022-10-05T02:00:33.145Z,52.43
2022-10-05T02:03:17.368Z,52.36
2022-10-05T02:05:51.782Z,51.96
2022-10-05T02:08:26.736Z,52.28
2022-10-05T02:11:01.339Z,51.60
2022-10-05T02:13:30.632Z,52.49
2022-10-05T02:16:03.302Z,51.82
2022-10-05T02:19:12.017Z,50.91
2022-10-05T02:21:39.036Z,53.01
2022-10-05T02:24:11.825Z,51.93
2022-10-05T02:26:40.509Z,51.64
2022-10-05T02:29:11.442Z,51.55
2022-10-05T02:32:04.120Z,51.15
2022-10-05T02:34:42.901Z,52.28
2022-10-05T02:37:24.991Z,51.47
2022-10-05T02:39:57.269Z,52.03
2022-10-05T02:42:33.226Z,52.24
2022-10-05T02:45:14.012Z,52.32
2022-10-05T02:48:13.541Z,51.36
2022-10-05T02:50:52.737Z,51.75
2022-10-05T02:53:44.547Z,52.20
2022-10-05T02:56:19.037Z,52.05
2022-10-05T02:59:00.693Z,52.79
2022-10-05T03:02:19.981Z,52.28
2022-10-05T03:04:55.306Z,53.03
2022-10-05T03:07:32.283Z,52.51
2022-10-05T03:10:13.181Z,52.46
2022-10-05T03:13:00.593Z,52.50
2022-10-05T03:15:53.801Z,54.08
2022-10-05T03:18:38.737Z,53.47
2022-10-05T03:21:27.358Z,53.71
2022-10-05T03:23:59.694Z,53.81
2022-10-05T03:26:58.002Z,52.74
2022-10-05T03:29:24.345Z,51.23
2022-10-05T03:32:11.046Z,53.46
2022-10-05T03:34:53.358Z,52.72
2022-10-05T03:37:30.351Z,53.00
2022-10-05T03:40:17.174Z,53.82
2022-10-05T03:43:06.801Z,53.19
2022-10-05T03:46:04.404Z,53.13
2022-10-05T03:48:48.481Z,52.91
2022-10-05T03:51:36.281Z,54.03
2022-10-05T03:54:19.881Z,51.64
2022-10-05T03:57:06.545Z,52.25
2022-10-05T03:59:39.401Z,54.03
2022-10-05T04:02:13.239Z,54.15
2022-10-05T04:04:50.598Z,53.43
2022-10-05T04:07:51.122Z,53.03
2022-10-05T04:10:24.050Z,53.98
2022-10-05T04:13:06.966Z,53.85
2022-10-05T04:15:45.089Z,54.16
2022-10-05T04:18:23.530Z,54.13
2022-10-05T04:20:56.190Z,55.65
2022-10-05T04:23:44.774Z,54.56
2022-10-05T04:26:18.618Z,54.98
2022-10-05T04:29:04.986Z,54.22
2022-10-05T04:31:55.239Z,54.36
2022-10-05T04:34:54.379Z,53.88
2022-10-05T04:37:35.779Z,54.25
2022-10-05T04:40:34.594Z,53.29
2022-10-05T04:43:19.217Z,53.57
2022-10-05T04:46:14.168Z,53.92
2022-10-05T04:48:52.797Z,53.63
2022-10-05T04:51:37.790Z,53.83
2022-10-05T04:54:18.669Z,53.30
2022-10-05T04:56:53.094Z,53.87
2022-10-05T04:59:22.620Z,53.62
2022-10-05T05:02:16.551Z,53.37
2022-10-05T05:04:57.912Z,54.08
2022-10-05T05:07:30.451Z,53.97
2022-10-05T05:09:59.587Z,54.18
2022-10-05T05:12:50.153Z,53.02
2022-10-05T05:15:29.093Z,54.09
2022-10-05T05:18:01.213Z,54.71
2022-10-05T05:20:28.029Z,54.75
2022-10-05T05:23:26.649Z,53.70
2022-10-05T05:26:06.617Z,55.14
2022-10-05T05:28:53.174Z,53.43
2022-10-05T05:31:45.143Z,54.60
2022-10-05T05:34:36.530Z,54.04
2022-10-05T05:37:32.690Z,54.05
2022-10-05T05:40:25.209Z,54.54
2022-10-05T05:42:58.819Z,55.14
2022-10-05T05:45:31.078Z,55.34
2022-10-05T05:47:59.482Z,55.56
2022-10-05T05:51:08.709Z,54.11
2022-10-05T05:53:45.589Z,54.87
2022-10-05T05:56:18.969Z,55.29
2022-10-05T05:58:51.989Z,55.51
2022-10-05T06:01:44.639Z,54.52
2022-10-05T06:04:38.264Z,54.81
2022-10-05T06:07:05.937Z,55.60
2022-10-05T06:09:45.322Z,55.25
2022-10-05T06:12:20.146Z,54.74
2022-10-05T06:14:50.369Z,55.51
2022-10-05T06:17:24.645Z,55.38
2022-10-05T06:19:59.023Z,55.38
2022-10-05T06:22:37.147Z,55.17
2022-10-05T06:25:09.659Z,55.35
2022-10-05T06:27:37.881Z,56.07
2022-10-05T06:30:11.103Z,55.51
2022-10-05T06:32:58.586Z,56.17
2022-10-05T06:36:00.636Z,54.55
2022-10-05T06:38:47.986Z,55.55
2022-10-05T06:41:27.653Z,55.59
2022-10-05T06:44:03.943Z,56.01
2022-10-05T06:46:40.302Z,55.45
2022-10-05T06:49:18.336Z,56.05
2022-10-05T06:52:03.051Z,55.47
2022-10-05T06:54:50.200Z,55.21
2022-10-05T06:57:50.586Z,54.98
2022-10-05T07:00:21.284Z,55.67
2022-10-05T07:03:25.428Z,54.96
2022-10-05T07:06:06.894Z,55.21
2022-10-05T07:08:54.327Z,55.11
2022-10-05T07:11:59.659Z,55.59
2022-10-05T07:14:45.565Z,55.18
2022-10-05T07:17:50.379Z,55.58
2022-10-05T07:20:30.291Z,55.37
2022-10-05T07:23:14.821Z,55.46
2022-10-05T07:25:50.333Z,55.57
2022-10-05T07:28:25.851Z,55.80
2022-10-05T07:31:02.040Z,55.58
2022-10-05T07:33:56.602Z,55.43
2022-10-05T07:36:52.229Z,55.64
2022-10-05T07:39:55.344Z,55.56
2022-10-05T07:42:52.053Z,54.99
2022-10-05T07:45:29.695Z,55.21
2022-10-05T07:47:59.152Z,55.14
2022-10-05T07:50:38.627Z,54.23
2022-10-05T07:53:11.362Z,54.62
2022-10-05T07:55:43.791Z,54.47
2022-10-05T07:58:24.572Z,54.08
2022-10-05T08:01:00.534Z,53.70
2022-10-05T08:03:34.426Z,53.82
2022-10-05T08:06:03.926Z,53.95
2022-10-05T08:08:50.583Z,54.50
2022-10-05T08:11:23.870Z,54.01
2022-10-05T08:14:33.728Z,53.54
2022-10-05T08:17:04.230Z,54.08
2022-10-05T08:19:47.459Z,53.70
2022-10-05T08:22:23.139Z,53.65
2022-10-05T08:24:57.870Z,53.61
2022-10-05T08:28:10.507Z,53.26
2022-10-05T08:31:02.282Z,53.41
2022-10-05T08:33:35.945Z,53.55
2022-10-05T08:36:10.728Z,53.56
2022-10-05T08:38:37.778Z,53.61
2022-10-05T08:41:19.870Z,53.85
2022-10-05T08:43:52.227Z,53.35
2022-10-05T08:46:36.059Z,53.86
2022-10-05T08:49:14.636Z,53.41
2022-10-05T08:51:58.787Z,53.05
2022-10-05T08:54:43.384Z,53.08
2022-10-05T08:57:46.611Z,52.82
2022-10-05T09:00:18.879Z,52.67
2022-10-05T09:03:16.467Z,52.61
2022-10-05T09:06:21.767Z,52.20
2022-10-05T09:08:56.580Z,52.58
2022-10-05T09:11:36.192Z,52.46
2022-10-05T09:14:29.569Z,52.27
2022-10-05T09:17:20.196Z,52.29
2022-10-05T09:19:52.495Z,52.25
2022-10-05T09:22:43.811Z,52.03
2022-10-05T09:25:56.620Z,51.58
2022-10-05T09:28:31.174Z,52.28
2022-10-05T09:31:07.567Z,52.12
2022-10-05T09:33:53.894Z,51.83
2022-10-05T09:36:34.498Z,51.79
2022-10-05T09:39:22.925Z,51.67
2022-10-05T09:42:11.885Z,51.87
2022-10-05T09:44:56.236Z,51.81
2022-10-05T09:47:45.236Z,51.79
2022-10-05T09:50:49.325Z,51.90
2022-10-05T09:53:32.256Z,51.77
2022-10-05T09:56:34.667Z,51.65
2022-10-05T09:59:18.194Z,51.30
2022-10-05T10:01:59.235Z,51.44
2022-10-05T10:05:06.926Z,51.28
2022-10-05T10:07:52.829Z,51.83
2022-10-05T10:10:45.557Z,51.23
2022-10-05T10:13:45.714Z,51.32
2022-10-05T10:16:42.573Z,51.60
2022-10-05T10:19:35.393Z,51.49
2022-10-05T10:22:20.667Z,51.84
2022-10-05T10:25:24.914Z,51.43
2022-10-05T10:28:13.631Z,50.97
2022-10-05T10:31:05.014Z,51.28
2022-10-05T10:34:09.102Z,51.31
2022-10-05T10:36:57.162Z,51.02
2022-10-05T10:39:53.742Z,51.06
2022-10-05T10:42:41.850Z,50.76
2022-10-05T10:45:19.800Z,51.08
2022-10-05T10:47:52.056Z,51.16
2022-10-05T10:50:37.031Z,50.90
2022-10-05T10:53:52.992Z,50.92
2022-10-05T10:56:33.482Z,50.81
2022-10-05T10:59:08.102Z,50.71
2022-10-05T11:02:14.294Z,50.61
2022-10-05T11:04:56.218Z,51.00
2022-10-05T11:08:01.071Z,50.74
2022-10-05T11:10:55.389Z,50.87
2022-10-05T11:13:55.720Z,51.02
2022-10-05T11:16:27.983Z,50.84
2022-10-05T11:19:06.315Z,50.70
2022-10-05T11:22:00.210Z,50.57
2022-10-05T11:24:45.511Z,50.71
2022-10-05T11:27:56.099Z,50.28
2022-10-05T11:30:38.136Z,50.45
2022-10-05T11:33:22.974Z,50.63
2022-10-05T11:36:08.967Z,50.73
2022-10-05T11:39:11.459Z,50.61
2022-10-05T11:41:52.959Z,50.72
2022-10-05T11:44:41.316Z,50.80
2022-10-05T11:47:16.873Z,50.67
2022-10-05T11:49:53.903Z,51.04
2022-10-05T11:52:27.664Z,50.55
2022-10-05T11:55:10.749Z,51.11
2022-10-05T11:57:49.557Z,51.18
2022-10-05T12:00:25.299Z,50.50
2022-10-05T12:03:03.557Z,50.79
2022-10-05T12:05:54.605Z,50.71
2022-10-05T12:08:50.381Z,50.88
2022-10-05T12:11:40.641Z,50.24
2022-10-05T12:14:20.815Z,50.04
2022-10-05T12:17:16.750Z,50.04
2022-10-05T12:19:51.469Z,50.23
2022-10-05T12:22:36.818Z,49.99
2022-10-05T12:25:42.369Z,49.62
2022-10-05T12:28:27.138Z,49.47
2022-10-05T12:31:20.642Z,49.24
2022-10-05T12:33:57.606Z,47.84
2022-10-05T12:36:46.192Z,48.48
2022-10-05T12:39:29.954Z,48.08
2022-10-05T12:42:22.647Z,47.88
2022-10-05T12:44:57.335Z,47.11
2022-10-05T12:47:53.736Z,47.30
2022-10-05T12:50:23.513Z,46.73
2022-10-05T12:53:23.918Z,46.46
2022-10-05T12:56:05.506Z,46.28
2022-10-05T12:58:47.087Z,45.84
2022-10-05T13:01:34.945Z,46.01
2022-10-05T13:04:09.083Z,45.96
2022-10-05T13:07:08.127Z,45.92
2022-10-05T13:10:19.217Z,46.11
2022-10-05T13:13:24.979Z,45.88
2022-10-05T13:15:54.435Z,44.04
2022-10-05T13:18:36.167Z,45.54
2022-10-05T13:21:21.071Z,43.41
2022-10-05T13:24:06.529Z,44.13
2022-10-05T13:26:36.448Z,43.66
2022-10-05T13:29:25.912Z,44.46
2022-10-05T13:31:58.107Z,43.62
2022-10-05T13:34:43.321Z,43.78
2022-10-05T13:37:27.511Z,43.20
2022-10-05T13:40:15.476Z,44.31
2022-10-05T13:43:04.118Z,44.51
2022-10-05T13:46:04.778Z,42.52
2022-10-05T13:49:19.397Z,43.99
2022-10-05T13:52:13.851Z,43.17
2022-10-05T13:54:47.829Z,41.68
2022-10-05T13:57:45.303Z,43.07
2022-10-05T14:00:25.644Z,43.08
2022-10-05T14:02:56.830Z,42.78
2022-10-05T14:05:27.058Z,41.86
2022-10-05T14:08:02.659Z,41.85
2022-10-05T14:10:40.845Z,42.49
2022-10-05T14:13:32.084Z,42.66
2022-10-05T14:16:21.632Z,42.79
2022-10-05T14:19:14.357Z,41.70
2022-10-05T14:21:50.189Z,42.25
2022-10-05T14:24:49.446Z,41.90
2022-10-05T14:27:28.273Z,42.31
2022-10-05T14:30:13.013Z,42.66
2022-10-05T14:32:59.174Z,42.82
2022-10-05T14:35:29.749Z,41.58
2022-10-05T14:38:02.844Z,42.26
2022-10-05T14:40:35.408Z,42.08
2022-10-05T14:43:18.431Z,42.53
2022-10-05T14:45:55.181Z,42.34
2022-10-05T14:48:21.713Z,43.17
2022-10-05T14:50:59.606Z,42.35
2022-10-05T14:53:38.847Z,42.68
2022-10-05T14:56:53.702Z,42.70
2022-10-05T14:59:46.811Z,42.75
2022-10-05T15:02:45.068Z,42.96
2022-10-05T15:05:34.575Z,42.75
2022-10-05T15:08:27.370Z,43.17
2022-10-05T15:11:18.678Z,43.32
2022-10-05T15:13:48.689Z,42.08
2022-10-05T15:16:28.912Z,43.00
2022-10-05T15:19:08.295Z,42.46
2022-10-05T15:21:43.838Z,41.98
2022-10-05T15:24:20.894Z,42.45
2022-10-05T15:26:54.383Z,42.70
2022-10-05T15:29:41.953Z,42.05
2022-10-05T15:32:42.073Z,42.51
2022-10-05T15:35:37.110Z,42.75
2022-10-05T15:38:17.790Z,42.26
2022-10-05T15:41:11.963Z,42.93
2022-10-05T15:44:19.046Z,42.49
2022-10-05T15:46:58.181Z,42.48
2022-10-05T15:49:30.438Z,42.37
2022-10-05T15:52:19.151Z,42.99
2022-10-05T15:55:01.539Z,43.20
2022-10-05T15:58:25.775Z,43.24
2022-10-05T16:00:58.781Z,43.37
2022-10-05T16:03:34.305Z,43.25
2022-10-05T16:06:27.563Z,43.33
2022-10-05T16:09:09.358Z,43.23
2022-10-05T16:12:09.862Z,43.70
2022-10-05T16:14:47.614Z,43.62
2022-10-05T16:17:40.970Z,43.86
2022-10-05T16:20:31.432Z,44.09
2022-10-05T16:23:40.253Z,43.85
2022-10-05T16:26:24.504Z,44.25
2022-10-05T16:29:02.341Z,43.90
2022-10-05T16:31:43.981Z,44.43
2022-10-05T16:34:27.119Z,44.55
2022-10-05T16:37:14.871Z,44.38
2022-10-05T16:39:49.561Z,44.54
2022-10-05T16:42:36.263Z,44.89
2022-10-05T16:45:18.688Z,44.68
2022-10-05T16:48:12.200Z,44.74
2022-10-05T16:50:55.135Z,45.28
2022-10-05T16:53:45.693Z,45.11
2022-10-05T16:56:17.272Z,45.44
2022-10-05T16:59:11.655Z,45.60
2022-10-05T17:02:06.092Z,45.65
2022-10-05T17:04:48.862Z,45.80
2022-10-05T17:07:42.170Z,45.49
2022-10-05T17:10:37.298Z,45.78
2022-10-05T17:13:42.091Z,45.87
2022-10-05T17:16:14.702Z,46.35
2022-10-05T17:19:10.324Z,46.33
2022-10-05T17:21:48.379Z,46.21
2022-10-05T17:24:30.113Z,46.97
2022-10-05T17:26:59.365Z,47.23
2022-10-05T17:29:32.075Z,46.98
2022-10-05T17:32:36.199Z,47.17
2022-10-05T17:35:18.245Z,47.24
2022-10-05T17:38:14.562Z,46.97
2022-10-05T17:41:03.402Z,47.54
2022-10-05T17:43:31.964Z,47.75
2022-10-05T17:46:07.278Z,47.24
2022-10-05T17:48:49.291Z,47.64
2022-10-05T17:51:57.716Z,47.99
2022-10-05T17:54:48.168Z,48.33
2022-10-05T17:57:23.951Z,47.92
2022-10-05T18:00:06.739Z,47.86
2022-10-05T18:02:36.917Z,48.63
2022-10-05T18:05:06.790Z,49.03
2022-10-05T18:07:38.856Z,48.65
2022-10-05T18:10:17.683Z,48.71
2022-10-05T18:12:47.917Z,49.03
2022-10-05T18:15:45.005Z,48.35
2022-10-05T18:18:32.958Z,48.91
2022-10-05T18:21:11.834Z,49.03
2022-10-05T18:23:41.619Z,49.60
2022-10-05T18:26:29.076Z,49.13
2022-10-05T18:29:40.869Z,49.14
2022-10-05T18:32:23.553Z,49.07
2022-10-05T18:35:08.619Z,49.31
2022-10-05T18:37:56.738Z,49.47
2022-10-05T18:40:54.611Z,49.39
2022-10-05T18:43:29.200Z,50.02
2022-10-05T18:46:05.191Z,49.99
2022-10-05T18:48:49.836Z,49.58
2022-10-05T18:51:35.300Z,49.21
2022-10-05T18:54:11.424Z,49.81
2022-10-05T18:56:48.809Z,49.61
2022-10-05T18:59:39.512Z,49.53
2022-10-05T19:02:43.526Z,49.88
2022-10-05T19:05:46.320Z,49.65
2022-10-05T19:08:27.093Z,48.90
2022-10-05T19:10:57.560Z,50.07
2022-10-05T19:14:01.690Z,49.50
2022-10-05T19:16:52.833Z,49.96
2022-10-05T19:19:39.261Z,50.33
2022-10-05T19:22:21.961Z,50.47
2022-10-05T19:25:01.898Z,50.72
2022-10-05T19:27:44.709Z,50.44
2022-10-05T19:30:23.198Z,50.13
2022-10-05T19:32:58.452Z,51.07
2022-10-05T19:35:33.522Z,51.16
2022-10-05T19:38:15.992Z,51.26
2022-10-05T19:40:57.101Z,50.20
2022-10-05T19:43:29.976Z,50.64
2022-10-05T19:46:34.665Z,50.43
2022-10-05T19:49:01.749Z,50.96
2022-10-05T19:51:31.528Z,50.92
2022-10-05T19:54:02.127Z,50.95
2022-10-05T19:56:33.564Z,51.06
2022-10-05T19:59:18.717Z,50.32
2022-10-05T20:01:51.378Z,50.56
2022-10-05T20:04:41.454Z,50.17
2022-10-05T20:07:21.746Z,50.95
2022-10-05T20:09:59.945Z,50.94
2022-10-05T20:12:52.477Z,50.57
2022-10-05T20:15:39.968Z,50.96
2022-10-05T20:18:44.066Z,49.65
2022-10-05T20:21:37.367Z,50.13
2022-10-05T20:24:31.977Z,50.55
2022-10-05T20:27:07.185Z,50.86
2022-10-05T20:29:36.782Z,51.09
2022-10-05T20:32:15.253Z,50.83
2022-10-05T21:49:37.600Z,50.98
2022-10-05T21:52:07.738Z,51.50
2022-10-05T21:54:35.122Z,51.49
2022-10-05T21:57:02.209Z,51.13
2022-10-05T21:59:32.978Z,51.14
2022-10-05T22:01:59.581Z,51.31
2022-10-05T22:04:26.448Z,51.07
2022-10-05T22:06:54.897Z,50.87
2022-10-05T22:09:21.350Z,51.08
2022-10-05T22:11:48.140Z,49.56
2022-10-05T22:14:15.603Z,50.36
2022-10-05T22:16:44.088Z,50.70
2022-10-05T22:19:15.573Z,50.32
2022-10-05T22:21:42.069Z,50.32
2022-10-05T22:24:09.237Z,49.78
2022-10-05T22:26:36.463Z,50.31
2022-10-05T22:29:03.673Z,50.63
2022-10-05T22:31:30.309Z,50.15
2022-10-05T22:33:56.864Z,50.60
2022-10-05T22:36:23.483Z,49.21
2022-10-05T22:38:49.967Z,50.35
2022-10-05T22:41:19.492Z,49.48
2022-10-05T22:43:50.312Z,50.26
2022-10-05T22:46:17.324Z,49.95
2022-10-05T22:48:43.943Z,50.39
2022-10-05T22:51:10.504Z,50.28
2022-10-05T22:53:37.092Z,50.14
2022-10-05T22:56:12.141Z,50.29
2022-10-05T22:58:39.783Z,50.24
2022-10-05T23:01:10.020Z,50.25
2022-10-05T23:03:36.856Z,49.94
2022-10-05T23:06:09.819Z,50.12
2022-10-05T23:08:37.831Z,50.19
2022-10-05T23:11:09.591Z,49.92
2022-10-05T23:13:36.504Z,49.84
2022-10-05T23:16:11.534Z,49.69
2022-10-05T23:18:38.383Z,49.67
2022-10-05T23:21:07.468Z,49.65
2022-10-05T23:23:38.047Z,49.94
2022-10-05T23:26:06.100Z,49.66
2022-10-05T23:28:33.458Z,49.81
2022-10-05T23:31:02.595Z,49.44
2022-10-05T23:33:29.358Z,49.91
2022-10-05T23:36:23.571Z,49.58
2022-10-05T23:38:50.822Z,49.58
2022-10-05T23:41:18.088Z,49.39
2022-10-05T23:43:44.595Z,49.87
2022-10-05T23:46:12.120Z,49.51
2022-10-05T23:48:39.409Z,49.49
2022-10-05T23:51:07.928Z,49.79
2022-10-05T23:53:34.581Z,49.55
2022-10-05T23:56:01.224Z,49.70
2022-10-05T23:58:28.464Z,49.36
